sensor_id;sensor_type;location;lat;lon;timestamp;pressure;altitude;pressure_sealevel;temperature;humidity
64602;BME280;68371;42.630;23.192;2023-05-24T00:01:24;92224.03;;;10.78;87.60
64602;BME280;68371;42.630;23.192;2023-05-24T00:03:51;92199.47;;;10.55;87.71
64602;BME280;68371;42.630;23.192;2023-05-24T00:06:18;92233.09;;;10.65;88.15
64602;BME280;68371;42.630;23.192;2023-05-24T00:08:45;92219.03;;;10.57;88.23
64602;BME280;68371;42.630;23.192;2023-05-24T00:11:12;92227.75;;;10.61;88.50
64602;BME280;68371;42.630;23.192;2023-05-24T00:13:39;92205.56;;;10.43;88.27
64602;BME280;68371;42.630;23.192;2023-05-24T00:16:08;92220.81;;;10.53;87.71
64602;BME280;68371;42.630;23.192;2023-05-24T00:18:35;92225.41;;;10.56;88.00
64602;BME280;68371;42.630;23.192;2023-05-24T00:21:05;92222.16;;;10.47;88.11
64602;BME280;68371;42.630;23.192;2023-05-24T00:23:32;92221.00;;;10.45;88.18
64602;BME280;68371;42.630;23.192;2023-05-24T00:25:59;92222.34;;;10.38;87.85
64602;BME280;68371;42.630;23.192;2023-05-24T00:28:26;92217.69;;;10.19;88.84
64602;BME280;68371;42.630;23.192;2023-05-24T00:30:53;92220.00;;;10.21;89.12
64602;BME280;68371;42.630;23.192;2023-05-24T00:33:21;92206.25;;;10.12;88.97
64602;BME280;68371;42.630;23.192;2023-05-24T00:35:48;92213.97;;;10.20;89.02
64602;BME280;68371;42.630;23.192;2023-05-24T00:38:18;92215.75;;;10.16;89.05
64602;BME280;68371;42.630;23.192;2023-05-24T00:40:45;92213.63;;;10.06;89.80
64602;BME280;68371;42.630;23.192;2023-05-24T00:43:13;92183.59;;;9.91;89.53
64602;BME280;68371;42.630;23.192;2023-05-24T00:45:40;92211.09;;;10.10;89.81
64602;BME280;68371;42.630;23.192;2023-05-24T00:48:07;92209.13;;;10.07;89.75
64602;BME280;68371;42.630;23.192;2023-05-24T00:50:35;92217.00;;;10.07;89.65
64602;BME280;68371;42.630;23.192;2023-05-24T00:53:03;92210.47;;;10.00;90.14
64602;BME280;68371;42.630;23.192;2023-05-24T00:55:30;92211.13;;;9.97;90.03
64602;BME280;68371;42.630;23.192;2023-05-24T00:57:59;92194.34;;;9.86;89.54
64602;BME280;68371;42.630;23.192;2023-05-24T01:00:28;92192.38;;;9.83;89.67
64602;BME280;68371;42.630;23.192;2023-05-24T01:02:55;92208.75;;;9.92;89.50
64602;BME280;68371;42.630;23.192;2023-05-24T01:05:22;92213.16;;;9.88;89.20
64602;BME280;68371;42.630;23.192;2023-05-24T01:07:58;92212.72;;;9.86;89.80
64602;BME280;68371;42.630;23.192;2023-05-24T01:10:33;92212.81;;;9.90;89.94
64602;BME280;68371;42.630;23.192;2023-05-24T01:13:07;92207.78;;;9.85;90.21
64602;BME280;68371;42.630;23.192;2023-05-24T01:15:46;92211.09;;;9.81;90.06
64602;BME280;68371;42.630;23.192;2023-05-24T01:18:18;92211.44;;;9.80;90.35
64602;BME280;68371;42.630;23.192;2023-05-24T01:20:53;92220.38;;;9.79;90.07
64602;BME280;68371;42.630;23.192;2023-05-24T01:23:34;92223.00;;;9.79;90.15
64602;BME280;68371;42.630;23.192;2023-05-24T01:26:21;92214.84;;;9.68;90.32
64602;BME280;68371;42.630;23.192;2023-05-24T01:28:56;92233.00;;;9.73;90.15
64602;BME280;68371;42.630;23.192;2023-05-24T01:31:24;92225.34;;;9.68;90.53
64602;BME280;68371;42.630;23.192;2023-05-24T01:33:51;92222.97;;;9.63;90.29
64602;BME280;68371;42.630;23.192;2023-05-24T01:36:18;92222.19;;;9.62;90.46
64602;BME280;68371;42.630;23.192;2023-05-24T01:38:45;92219.47;;;9.59;90.15
64602;BME280;68371;42.630;23.192;2023-05-24T01:41:22;92215.75;;;9.60;89.89
64602;BME280;68371;42.630;23.192;2023-05-24T01:43:58;92219.13;;;9.60;90.38
64602;BME280;68371;42.630;23.192;2023-05-24T01:46:34;92212.50;;;9.51;90.73
64602;BME280;68371;42.630;23.192;2023-05-24T01:49:08;92219.50;;;9.47;90.82
64602;BME280;68371;42.630;23.192;2023-05-24T01:51:40;92221.47;;;9.50;90.75
64602;BME280;68371;42.630;23.192;2023-05-24T01:54:12;92219.94;;;9.49;90.75
64602;BME280;68371;42.630;23.192;2023-05-24T01:56:43;92221.03;;;9.48;90.65
64602;BME280;68371;42.630;23.192;2023-05-24T01:59:15;92211.63;;;9.47;90.85
64602;BME280;68371;42.630;23.192;2023-05-24T02:01:42;92217.66;;;9.47;90.91
64602;BME280;68371;42.630;23.192;2023-05-24T02:04:11;92200.75;;;9.32;90.58
64602;BME280;68371;42.630;23.192;2023-05-24T02:06:37;92202.38;;;9.37;90.49
64602;BME280;68371;42.630;23.192;2023-05-24T02:09:04;92210.69;;;9.39;90.69
64602;BME280;68371;42.630;23.192;2023-05-24T02:11:31;92214.72;;;9.36;90.98
64602;BME280;68371;42.630;23.192;2023-05-24T02:13:57;92210.16;;;9.33;91.23
64602;BME280;68371;42.630;23.192;2023-05-24T02:16:25;92209.38;;;9.33;90.91
64602;BME280;68371;42.630;23.192;2023-05-24T02:18:55;92190.97;;;9.17;91.40
64602;BME280;68371;42.630;23.192;2023-05-24T02:21:21;92204.69;;;9.26;91.46
64602;BME280;68371;42.630;23.192;2023-05-24T02:23:48;92208.84;;;9.27;91.01
64602;BME280;68371;42.630;23.192;2023-05-24T02:26:16;92205.03;;;9.25;91.04
64602;BME280;68371;42.630;23.192;2023-05-24T02:28:45;92198.69;;;9.26;91.24
64602;BME280;68371;42.630;23.192;2023-05-24T02:31:12;92204.94;;;9.21;91.42
64602;BME280;68371;42.630;23.192;2023-05-24T02:33:42;92197.19;;;9.25;91.38
64602;BME280;68371;42.630;23.192;2023-05-24T02:36:10;92195.53;;;9.20;91.61
64602;BME280;68371;42.630;23.192;2023-05-24T02:38:37;92195.19;;;9.21;91.21
64602;BME280;68371;42.630;23.192;2023-05-24T02:41:04;92203.72;;;9.18;91.14
64602;BME280;68371;42.630;23.192;2023-05-24T02:43:33;92200.22;;;9.14;91.44
64602;BME280;68371;42.630;23.192;2023-05-24T02:46:00;92198.59;;;9.10;91.70
64602;BME280;68371;42.630;23.192;2023-05-24T02:48:26;92193.38;;;8.97;92.07
64602;BME280;68371;42.630;23.192;2023-05-24T02:50:54;92199.47;;;9.01;92.16
64602;BME280;68371;42.630;23.192;2023-05-24T02:53:21;92189.44;;;9.03;90.97
64602;BME280;68371;42.630;23.192;2023-05-24T02:55:48;92146.13;;;8.69;91.44
64602;BME280;68371;42.630;23.192;2023-05-24T02:58:18;92192.72;;;9.00;92.04
64602;BME280;68371;42.630;23.192;2023-05-24T03:00:45;92202.09;;;9.01;91.93
64602;BME280;68371;42.630;23.192;2023-05-24T03:03:12;92206.91;;;8.99;92.19
64602;BME280;68371;42.630;23.192;2023-05-24T03:05:41;92166.88;;;8.74;92.22
64602;BME280;68371;42.630;23.192;2023-05-24T03:08:09;92205.16;;;8.91;92.37
64602;BME280;68371;42.630;23.192;2023-05-24T03:10:35;92209.78;;;8.94;92.13
64602;BME280;68371;42.630;23.192;2023-05-24T03:13:02;92213.34;;;8.90;92.46
64602;BME280;68371;42.630;23.192;2023-05-24T03:15:29;92205.84;;;8.88;92.42
64602;BME280;68371;42.630;23.192;2023-05-24T03:17:56;92198.50;;;8.81;92.49
64602;BME280;68371;42.630;23.192;2023-05-24T03:20:22;92217.19;;;8.92;92.34
64602;BME280;68371;42.630;23.192;2023-05-24T03:22:50;92216.09;;;8.93;92.54
64602;BME280;68371;42.630;23.192;2023-05-24T03:25:18;92220.44;;;8.89;92.84
64602;BME280;68371;42.630;23.192;2023-05-24T03:27:46;92223.06;;;8.89;92.91
64602;BME280;68371;42.630;23.192;2023-05-24T03:30:12;92215.44;;;8.84;93.21
64602;BME280;68371;42.630;23.192;2023-05-24T03:32:41;92218.50;;;8.86;93.18
64602;BME280;68371;42.630;23.192;2023-05-24T03:35:08;92231.38;;;8.91;93.04
64602;BME280;68371;42.630;23.192;2023-05-24T03:37:36;92227.00;;;8.95;93.14
64602;BME280;68371;42.630;23.192;2023-05-24T03:40:03;92209.78;;;8.82;93.81
64602;BME280;68371;42.630;23.192;2023-05-24T03:42:32;92228.75;;;8.91;93.11
64602;BME280;68371;42.630;23.192;2023-05-24T03:44:58;92229.84;;;8.90;93.46
64602;BME280;68371;42.630;23.192;2023-05-24T03:47:25;92233.56;;;8.89;93.61
64602;BME280;68371;42.630;23.192;2023-05-24T03:49:52;92230.63;;;8.91;93.79
64602;BME280;68371;42.630;23.192;2023-05-24T03:52:18;92231.81;;;8.93;94.07
64602;BME280;68371;42.630;23.192;2023-05-24T03:54:46;92237.81;;;8.94;94.46
64602;BME280;68371;42.630;23.192;2023-05-24T03:57:13;92229.63;;;8.95;94.61
64602;BME280;68371;42.630;23.192;2023-05-24T03:59:43;92236.84;;;8.98;94.92
64602;BME280;68371;42.630;23.192;2023-05-24T04:02:11;92211.09;;;8.88;95.69
64602;BME280;68371;42.630;23.192;2023-05-24T04:04:38;92238.69;;;8.98;95.94
64602;BME280;68371;42.630;23.192;2023-05-24T04:07:04;92240.75;;;9.05;96.47
64602;BME280;68371;42.630;23.192;2023-05-24T04:09:32;92243.59;;;9.12;96.68
64602;BME280;68371;42.630;23.192;2023-05-24T04:11:58;92246.97;;;9.12;96.65
64602;BME280;68371;42.630;23.192;2023-05-24T04:14:25;92209.78;;;8.94;97.14
64602;BME280;68371;42.630;23.192;2023-05-24T04:16:53;92240.50;;;9.22;97.36
64602;BME280;68371;42.630;23.192;2023-05-24T04:19:21;92246.19;;;9.24;97.63
64602;BME280;68371;42.630;23.192;2023-05-24T04:21:48;92233.63;;;9.30;97.68
64602;BME280;68371;42.630;23.192;2023-05-24T04:24:17;92148.75;;;8.81;98.17
64602;BME280;68371;42.630;23.192;2023-05-24T04:26:44;92238.84;;;9.42;99.39
64602;BME280;68371;42.630;23.192;2023-05-24T04:29:12;92233.16;;;9.52;99.70
64602;BME280;68371;42.630;23.192;2023-05-24T04:31:39;92234.22;;;9.63;99.82
64602;BME280;68371;42.630;23.192;2023-05-24T04:34:08;92238.88;;;9.70;100.00
64602;BME280;68371;42.630;23.192;2023-05-24T04:36:37;92239.75;;;9.74;100.00
64602;BME280;68371;42.630;23.192;2023-05-24T04:39:04;92240.72;;;9.82;100.00
64602;BME280;68371;42.630;23.192;2023-05-24T04:41:31;92230.44;;;9.77;100.00
64602;BME280;68371;42.630;23.192;2023-05-24T04:43:59;92257.59;;;9.97;100.00
64602;BME280;68371;42.630;23.192;2023-05-24T04:46:26;92241.84;;;9.97;100.00
64602;BME280;68371;42.630;23.192;2023-05-24T04:48:53;92246.50;;;10.16;100.00
64602;BME280;68371;42.630;23.192;2023-05-24T04:51:21;92252.66;;;10.23;100.00
64602;BME280;68371;42.630;23.192;2023-05-24T04:53:51;92225.28;;;10.09;100.00
64602;BME280;68371;42.630;23.192;2023-05-24T04:56:21;92264.09;;;10.43;100.00
64602;BME280;68371;42.630;23.192;2023-05-24T04:58:49;92256.81;;;10.53;100.00
64602;BME280;68371;42.630;23.192;2023-05-24T05:01:16;92249.91;;;10.60;100.00
64602;BME280;68371;42.630;23.192;2023-05-24T05:03:44;92263.72;;;10.73;100.00
64602;BME280;68371;42.630;23.192;2023-05-24T05:06:11;92262.88;;;10.85;97.37
64602;BME280;68371;42.630;23.192;2023-05-24T05:08:39;92258.53;;;10.93;97.63
64602;BME280;68371;42.630;23.192;2023-05-24T05:11:08;92240.13;;;10.93;97.67
64602;BME280;68371;42.630;23.192;2023-05-24T05:13:35;92263.53;;;11.14;94.10
64602;BME280;68371;42.630;23.192;2023-05-24T05:16:02;92259.63;;;11.23;92.34
64602;BME280;68371;42.630;23.192;2023-05-24T05:18:29;92256.09;;;11.35;91.33
64602;BME280;68371;42.630;23.192;2023-05-24T05:20:56;92257.94;;;11.51;90.59
64602;BME280;68371;42.630;23.192;2023-05-24T05:23:23;92257.47;;;11.65;89.73
64602;BME280;68371;42.630;23.192;2023-05-24T05:25:51;92255.81;;;11.76;90.52
64602;BME280;68371;42.630;23.192;2023-05-24T05:28:19;92249.66;;;11.88;90.44
64602;BME280;68371;42.630;23.192;2023-05-24T05:30:47;92258.25;;;12.00;90.76
64602;BME280;68371;42.630;23.192;2023-05-24T05:33:13;92258.50;;;12.15;89.97
64602;BME280;68371;42.630;23.192;2023-05-24T05:35:40;92259.13;;;12.28;89.39
64602;BME280;68371;42.630;23.192;2023-05-24T05:38:07;92251.75;;;12.37;86.67
64602;BME280;68371;42.630;23.192;2023-05-24T05:40:33;92264.13;;;12.56;87.26
64602;BME280;68371;42.630;23.192;2023-05-24T05:43:02;92253.97;;;12.77;88.37
64602;BME280;68371;42.630;23.192;2023-05-24T05:45:28;92252.19;;;12.85;87.64
64602;BME280;68371;42.630;23.192;2023-05-24T05:47:55;92252.41;;;12.99;88.04
64602;BME280;68371;42.630;23.192;2023-05-24T05:50:22;92256.75;;;13.11;86.76
64602;BME280;68371;42.630;23.192;2023-05-24T05:52:49;92257.69;;;13.22;85.53
64602;BME280;68371;42.630;23.192;2023-05-24T05:55:18;92238.09;;;13.23;86.18
64602;BME280;68371;42.630;23.192;2023-05-24T05:57:44;92233.81;;;13.38;85.27
64602;BME280;68371;42.630;23.192;2023-05-24T06:00:13;92254.50;;;13.63;84.95
64602;BME280;68371;42.630;23.192;2023-05-24T06:02:40;92264.72;;;13.68;82.64
64602;BME280;68371;42.630;23.192;2023-05-24T06:05:08;92265.66;;;13.79;85.18
64602;BME280;68371;42.630;23.192;2023-05-24T06:07:34;92257.56;;;13.99;84.10
64602;BME280;68371;42.630;23.192;2023-05-24T06:10:03;92269.44;;;14.12;85.79
64602;BME280;68371;42.630;23.192;2023-05-24T06:12:30;92273.72;;;14.24;83.61
64602;BME280;68371;42.630;23.192;2023-05-24T06:14:57;92268.56;;;14.35;82.27
64602;BME280;68371;42.630;23.192;2023-05-24T06:17:25;92272.44;;;14.45;80.72
64602;BME280;68371;42.630;23.192;2023-05-24T06:19:55;92276.78;;;14.60;80.62
64602;BME280;68371;42.630;23.192;2023-05-24T06:22:22;92278.00;;;14.66;81.65
64602;BME280;68371;42.630;23.192;2023-05-24T06:24:49;92283.78;;;14.79;80.30
64602;BME280;68371;42.630;23.192;2023-05-24T06:27:17;92275.16;;;14.89;77.97
64602;BME280;68371;42.630;23.192;2023-05-24T06:29:44;92274.84;;;14.98;78.94
64602;BME280;68371;42.630;23.192;2023-05-24T06:32:10;92284.44;;;15.13;82.09
64602;BME280;68371;42.630;23.192;2023-05-24T06:34:38;92279.22;;;15.24;78.72
64602;BME280;68371;42.630;23.192;2023-05-24T06:37:06;92277.72;;;15.27;79.51
64602;BME280;68371;42.630;23.192;2023-05-24T06:39:34;92281.97;;;15.38;78.02
64602;BME280;68371;42.630;23.192;2023-05-24T06:42:01;92275.59;;;15.47;79.45
64602;BME280;68371;42.630;23.192;2023-05-24T06:44:28;92277.50;;;15.46;79.69
64602;BME280;68371;42.630;23.192;2023-05-24T06:46:58;92272.69;;;15.62;78.20
64602;BME280;68371;42.630;23.192;2023-05-24T06:49:25;92272.03;;;15.73;77.85
64602;BME280;68371;42.630;23.192;2023-05-24T06:51:53;92265.28;;;15.82;76.38
64602;BME280;68371;42.630;23.192;2023-05-24T06:54:20;92261.53;;;15.91;76.40
64602;BME280;68371;42.630;23.192;2023-05-24T06:56:47;92258.16;;;15.94;76.30
64602;BME280;68371;42.630;23.192;2023-05-24T06:59:14;92266.16;;;16.08;75.28
64602;BME280;68371;42.630;23.192;2023-05-24T07:01:40;92273.41;;;16.22;77.30
64602;BME280;68371;42.630;23.192;2023-05-24T07:04:08;92260.94;;;16.33;74.54
64602;BME280;68371;42.630;23.192;2023-05-24T07:06:34;92270.06;;;16.50;74.89
64602;BME280;68371;42.630;23.192;2023-05-24T07:09:03;92264.81;;;16.57;72.56
64602;BME280;68371;42.630;23.192;2023-05-24T07:11:30;92263.28;;;16.60;74.70
64602;BME280;68371;42.630;23.192;2023-05-24T07:13:57;92266.72;;;16.78;69.42
64602;BME280;68371;42.630;23.192;2023-05-24T07:16:25;92245.88;;;16.70;67.99
64602;BME280;68371;42.630;23.192;2023-05-24T07:18:53;92269.06;;;16.84;65.72
64602;BME280;68371;42.630;23.192;2023-05-24T07:21:22;92269.84;;;17.02;67.04
64602;BME280;68371;42.630;23.192;2023-05-24T07:23:50;92267.56;;;17.08;68.13
64602;BME280;68371;42.630;23.192;2023-05-24T07:26:18;92262.66;;;17.13;66.24
64602;BME280;68371;42.630;23.192;2023-05-24T07:28:46;92270.59;;;17.24;65.42
64602;BME280;68371;42.630;23.192;2023-05-24T07:31:12;92269.84;;;17.34;64.39
64602;BME280;68371;42.630;23.192;2023-05-24T07:33:40;92274.00;;;17.50;67.72
64602;BME280;68371;42.630;23.192;2023-05-24T07:36:07;92278.94;;;17.51;68.80
64602;BME280;68371;42.630;23.192;2023-05-24T07:38:34;92277.41;;;17.65;64.39
64602;BME280;68371;42.630;23.192;2023-05-24T07:41:02;92277.03;;;17.66;64.42
64602;BME280;68371;42.630;23.192;2023-05-24T07:43:30;92270.94;;;17.69;64.13
64602;BME280;68371;42.630;23.192;2023-05-24T07:45:57;92281.56;;;17.84;66.08
64602;BME280;68371;42.630;23.192;2023-05-24T07:48:23;92263.72;;;17.91;65.90
64602;BME280;68371;42.630;23.192;2023-05-24T07:50:51;92275.06;;;18.06;65.65
64602;BME280;68371;42.630;23.192;2023-05-24T07:53:19;92278.84;;;18.12;63.63
64602;BME280;68371;42.630;23.192;2023-05-24T07:55:47;92264.78;;;18.15;62.47
64602;BME280;68371;42.630;23.192;2023-05-24T07:58:15;92268.19;;;18.23;62.80
64602;BME280;68371;42.630;23.192;2023-05-24T08:00:43;92268.50;;;18.32;61.55
64602;BME280;68371;42.630;23.192;2023-05-24T08:03:10;92256.38;;;18.24;59.97
64602;BME280;68371;42.630;23.192;2023-05-24T08:05:38;92272.66;;;18.44;56.42
64602;BME280;68371;42.630;23.192;2023-05-24T08:08:05;92275.63;;;18.57;58.81
64602;BME280;68371;42.630;23.192;2023-05-24T08:10:33;92267.25;;;18.58;57.04
64602;BME280;68371;42.630;23.192;2023-05-24T08:13:01;92276.72;;;18.63;61.72
64602;BME280;68371;42.630;23.192;2023-05-24T08:15:29;92214.59;;;18.32;55.14
64602;BME280;68371;42.630;23.192;2023-05-24T08:17:58;92261.47;;;18.71;56.42
64602;BME280;68371;42.630;23.192;2023-05-24T08:20:27;92274.41;;;18.76;55.03
64602;BME280;68371;42.630;23.192;2023-05-24T08:22:54;92264.50;;;18.80;56.77
64602;BME280;68371;42.630;23.192;2023-05-24T08:25:23;92264.50;;;18.84;55.48
64602;BME280;68371;42.630;23.192;2023-05-24T08:27:50;92263.31;;;18.88;54.08
64602;BME280;68371;42.630;23.192;2023-05-24T08:30:17;92271.22;;;18.99;54.48
64602;BME280;68371;42.630;23.192;2023-05-24T08:32:44;92265.06;;;19.09;51.98
64602;BME280;68371;42.630;23.192;2023-05-24T08:35:12;92271.94;;;19.10;51.82
64602;BME280;68371;42.630;23.192;2023-05-24T08:37:39;92271.13;;;19.13;53.15
64602;BME280;68371;42.630;23.192;2023-05-24T08:40:07;92241.94;;;19.02;51.90
64602;BME280;68371;42.630;23.192;2023-05-24T08:42:37;92271.03;;;19.24;53.11
64602;BME280;68371;42.630;23.192;2023-05-24T08:45:07;92274.41;;;19.32;53.07
64602;BME280;68371;42.630;23.192;2023-05-24T08:47:35;92273.66;;;19.31;52.64
64602;BME280;68371;42.630;23.192;2023-05-24T08:50:02;92280.41;;;19.47;51.88
64602;BME280;68371;42.630;23.192;2023-05-24T08:52:32;92267.41;;;19.52;52.50
64602;BME280;68371;42.630;23.192;2023-05-24T08:55:00;92273.91;;;19.48;48.17
64602;BME280;68371;42.630;23.192;2023-05-24T08:57:29;92267.41;;;19.52;47.93
64602;BME280;68371;42.630;23.192;2023-05-24T08:59:57;92271.13;;;19.62;48.20
64602;BME280;68371;42.630;23.192;2023-05-24T09:02:25;92268.78;;;19.71;50.67
64602;BME280;68371;42.630;23.192;2023-05-24T09:04:52;92267.22;;;19.77;47.57
64602;BME280;68371;42.630;23.192;2023-05-24T09:07:21;92266.47;;;19.77;47.68
64602;BME280;68371;42.630;23.192;2023-05-24T09:09:53;92283.06;;;19.92;48.00
64602;BME280;68371;42.630;23.192;2023-05-24T09:12:23;92269.72;;;19.95;47.80
64602;BME280;68371;42.630;23.192;2023-05-24T09:14:51;92268.88;;;20.02;46.94
64602;BME280;68371;42.630;23.192;2023-05-24T09:17:19;92260.00;;;20.12;48.84
64602;BME280;68371;42.630;23.192;2023-05-24T09:19:46;92271.66;;;20.26;48.00
64602;BME280;68371;42.630;23.192;2023-05-24T09:22:13;92271.56;;;20.33;48.40
64602;BME280;68371;42.630;23.192;2023-05-24T09:24:46;92265.75;;;20.41;49.51
64602;BME280;68371;42.630;23.192;2023-05-24T09:27:15;92261.84;;;20.50;45.68
64602;BME280;68371;42.630;23.192;2023-05-24T09:29:42;92268.56;;;20.61;45.31
64602;BME280;68371;42.630;23.192;2023-05-24T09:32:11;92226.44;;;20.46;46.46
64602;BME280;68371;42.630;23.192;2023-05-24T09:34:38;92259.56;;;20.83;45.91
64602;BME280;68371;42.630;23.192;2023-05-24T09:37:09;92252.69;;;20.81;45.31
64602;BME280;68371;42.630;23.192;2023-05-24T09:39:39;92261.50;;;21.06;45.17
64602;BME280;68371;42.630;23.192;2023-05-24T09:42:06;92266.59;;;21.24;43.95
64602;BME280;68371;42.630;23.192;2023-05-24T09:44:34;92258.22;;;21.21;46.16
64602;BME280;68371;42.630;23.192;2023-05-24T09:47:02;92263.88;;;21.27;43.59
64602;BME280;68371;42.630;23.192;2023-05-24T09:49:32;92258.75;;;21.36;42.18
64602;BME280;68371;42.630;23.192;2023-05-24T09:52:02;92254.50;;;21.39;44.00
64602;BME280;68371;42.630;23.192;2023-05-24T09:54:32;92251.81;;;21.43;40.66
64602;BME280;68371;42.630;23.192;2023-05-24T09:56:59;92253.09;;;21.58;42.13
64602;BME280;68371;42.630;23.192;2023-05-24T09:59:34;92250.91;;;21.73;41.50
64602;BME280;68371;42.630;23.192;2023-05-24T10:02:07;92258.00;;;21.83;43.55
64602;BME280;68371;42.630;23.192;2023-05-24T10:04:36;92254.31;;;21.97;39.56
64602;BME280;68371;42.630;23.192;2023-05-24T10:07:03;92246.69;;;21.95;40.19
64602;BME280;68371;42.630;23.192;2023-05-24T10:09:31;92244.59;;;22.07;39.18
64602;BME280;68371;42.630;23.192;2023-05-24T10:12:01;92248.59;;;22.18;39.41
64602;BME280;68371;42.630;23.192;2023-05-24T10:14:31;92255.38;;;22.23;41.48
64602;BME280;68371;42.630;23.192;2023-05-24T10:17:04;92243.66;;;22.37;41.12
64602;BME280;68371;42.630;23.192;2023-05-24T10:19:30;92249.00;;;22.37;39.06
64602;BME280;68371;42.630;23.192;2023-05-24T10:21:59;92248.03;;;22.47;38.77
64602;BME280;68371;42.630;23.192;2023-05-24T10:24:34;92232.06;;;22.44;38.51
64602;BME280;68371;42.630;23.192;2023-05-24T10:27:07;92252.25;;;22.65;40.15
64602;BME280;68371;42.630;23.192;2023-05-24T10:29:45;92226.69;;;22.64;37.47
64602;BME280;68371;42.630;23.192;2023-05-24T10:32:17;92238.00;;;22.71;37.43
64602;BME280;68371;42.630;23.192;2023-05-24T10:34:45;92238.94;;;22.81;36.24
64602;BME280;68371;42.630;23.192;2023-05-24T10:37:13;92240.97;;;22.93;39.28
64602;BME280;68371;42.630;23.192;2023-05-24T10:39:40;92235.31;;;23.08;37.60
64602;BME280;68371;42.630;23.192;2023-05-24T10:42:07;92234.13;;;23.25;38.02
64602;BME280;68371;42.630;23.192;2023-05-24T10:44:34;92238.41;;;23.39;35.55
64602;BME280;68371;42.630;23.192;2023-05-24T10:47:06;92222.84;;;23.34;35.12
64602;BME280;68371;42.630;23.192;2023-05-24T10:49:45;92229.28;;;23.53;34.61
64602;BME280;68371;42.630;23.192;2023-05-24T10:52:13;92231.09;;;23.56;32.48
64602;BME280;68371;42.630;23.192;2023-05-24T10:54:40;92219.66;;;23.39;33.48
64602;BME280;68371;42.630;23.192;2023-05-24T10:57:07;92220.38;;;23.56;33.35
64602;BME280;68371;42.630;23.192;2023-05-24T10:59:36;92216.00;;;23.62;32.80
64602;BME280;68371;42.630;23.192;2023-05-24T11:02:06;92224.81;;;23.79;35.52
64602;BME280;68371;42.630;23.192;2023-05-24T11:04:40;92222.13;;;23.79;33.17
64602;BME280;68371;42.630;23.192;2023-05-24T11:07:09;92222.50;;;23.94;33.96
64602;BME280;68371;42.630;23.192;2023-05-24T11:09:36;92224.13;;;23.91;34.43
64602;BME280;68371;42.630;23.192;2023-05-24T11:12:13;92220.78;;;23.87;34.00
64602;BME280;68371;42.630;23.192;2023-05-24T11:14:40;92225.72;;;23.72;33.78
64602;BME280;68371;42.630;23.192;2023-05-24T11:17:12;92215.75;;;23.89;36.76
64602;BME280;68371;42.630;23.192;2023-05-24T11:19:46;92214.94;;;24.05;35.24
64602;BME280;68371;42.630;23.192;2023-05-24T11:22:13;92206.00;;;24.37;35.96
64602;BME280;68371;42.630;23.192;2023-05-24T11:24:40;92211.22;;;24.70;34.01
64602;BME280;68371;42.630;23.192;2023-05-24T11:27:10;92201.88;;;24.88;36.78
64602;BME280;68371;42.630;23.192;2023-05-24T11:29:40;92194.13;;;24.90;32.79
64602;BME280;68371;42.630;23.192;2023-05-24T11:32:07;92209.19;;;25.13;32.54
64602;BME280;68371;42.630;23.192;2023-05-24T11:34:34;92213.25;;;25.17;31.20
64602;BME280;68371;42.630;23.192;2023-05-24T11:37:03;92196.41;;;25.17;33.18
64602;BME280;68371;42.630;23.192;2023-05-24T11:39:34;92173.50;;;25.12;32.36
64602;BME280;68371;42.630;23.192;2023-05-24T11:42:04;92201.44;;;25.75;32.85
64602;BME280;68371;42.630;23.192;2023-05-24T11:44:34;92175.81;;;25.84;32.97
64602;BME280;68371;42.630;23.192;2023-05-24T11:47:04;92203.56;;;26.15;33.00
64602;BME280;68371;42.630;23.192;2023-05-24T11:49:33;92190.91;;;26.25;30.85
64602;BME280;68371;42.630;23.192;2023-05-24T11:52:00;92188.28;;;26.34;30.34
64602;BME280;68371;42.630;23.192;2023-05-24T11:54:29;92196.31;;;26.25;31.37
64602;BME280;68371;42.630;23.192;2023-05-24T11:56:57;92172.75;;;26.38;32.57
64602;BME280;68371;42.630;23.192;2023-05-24T11:59:25;92185.75;;;26.62;32.18
64602;BME280;68371;42.630;23.192;2023-05-24T12:02:00;92186.06;;;26.64;33.71
64602;BME280;68371;42.630;23.192;2023-05-24T12:04:28;92185.06;;;26.71;30.32
64602;BME280;68371;42.630;23.192;2023-05-24T12:06:56;92186.91;;;26.83;32.38
64602;BME280;68371;42.630;23.192;2023-05-24T12:09:23;92182.56;;;26.76;29.99
64602;BME280;68371;42.630;23.192;2023-05-24T12:11:52;92178.44;;;27.03;31.89
64602;BME280;68371;42.630;23.192;2023-05-24T12:14:22;92180.69;;;27.05;32.49
64602;BME280;68371;42.630;23.192;2023-05-24T12:16:53;92180.28;;;27.15;30.73
64602;BME280;68371;42.630;23.192;2023-05-24T12:19:22;92171.91;;;27.23;30.92
64602;BME280;68371;42.630;23.192;2023-05-24T12:21:54;92178.53;;;27.31;30.10
64602;BME280;68371;42.630;23.192;2023-05-24T12:24:22;92169.13;;;27.35;31.22
64602;BME280;68371;42.630;23.192;2023-05-24T12:26:49;92170.03;;;27.42;30.75
64602;BME280;68371;42.630;23.192;2023-05-24T12:29:18;92172.59;;;27.73;29.79
64602;BME280;68371;42.630;23.192;2023-05-24T12:31:47;92162.56;;;27.92;29.13
64602;BME280;68371;42.630;23.192;2023-05-24T12:34:15;92171.72;;;27.94;28.02
64602;BME280;68371;42.630;23.192;2023-05-24T12:36:42;92167.53;;;27.93;26.79
64602;BME280;68371;42.630;23.192;2023-05-24T12:39:19;92169.16;;;28.09;27.36
64602;BME280;68371;42.630;23.192;2023-05-24T12:41:51;92164.47;;;28.28;27.45
64602;BME280;68371;42.630;23.192;2023-05-24T12:44:23;92159.38;;;28.30;27.15
64602;BME280;68371;42.630;23.192;2023-05-24T12:46:51;92120.81;;;28.39;27.27
64602;BME280;68371;42.630;23.192;2023-05-24T12:49:18;92164.84;;;29.06;26.42
64602;BME280;68371;42.630;23.192;2023-05-24T12:51:45;92158.16;;;28.92;25.39
64602;BME280;68371;42.630;23.192;2023-05-24T12:54:12;92159.44;;;29.06;25.98
64602;BME280;68371;42.630;23.192;2023-05-24T12:56:40;92157.69;;;29.27;27.25
64602;BME280;68371;42.630;23.192;2023-05-24T12:59:07;92160.69;;;29.53;27.86